Whittier, California
Current Conditions -  °F | °C
As of 2:53 AM on Wednesday 26 Nov 2014 (Local Time) from KFUL Reporting Station
Clear Clear  
Wind Chill: 52°   Ceiling: Unl
Heat Index: 52°   Visibility: 10mi
Dew Point: 25°   Wind: 3mph
Humidity: 35%   Direction: 80°E
Pressure: 30.22"   Gusts: NA
Location:  33.98°N, 118.03°W
Report Text: KFUL 261053Z 08003KT 10SM CLR 11/M04 A3022 RMK AO2 SLP232 T01111039
Loading
Personal Weather Stations






























Interactive Weather Map New forecast layout! Learn more

10-Day Weather Forecast

Advertisements
Track Severe Weather on mobile